createdAt,value
2023-10-16T00:01:16.391Z,80460.22
2023-10-16T00:02:57.794Z,80466.28
2023-10-16T00:04:39.277Z,80460.22
2023-10-16T00:06:20.682Z,80460.31
2023-10-16T00:08:02.049Z,80460.78
2023-10-16T00:09:43.444Z,80458.16
2023-10-16T00:11:24.838Z,80447.66
2023-10-16T00:13:06.178Z,80456.00
2023-10-16T00:14:47.525Z,80449.47
2023-10-16T00:16:28.900Z,80445.06
2023-10-16T00:18:11.477Z,80445.28
2023-10-16T00:19:52.820Z,80444.78
2023-10-16T00:21:34.211Z,80451.53
2023-10-16T00:23:15.576Z,80445.75
2023-10-16T00:24:57.134Z,80442.56
2023-10-16T00:26:38.581Z,80444.50
2023-10-16T00:28:19.933Z,80447.00
2023-10-16T00:30:01.391Z,80445.59
2023-10-16T00:31:42.824Z,80443.59
2023-10-16T00:33:24.169Z,80452.16
2023-10-16T00:35:05.518Z,80453.69
2023-10-16T00:36:46.893Z,80451.81
2023-10-16T00:38:28.289Z,80455.69
2023-10-16T00:40:09.741Z,80449.38
2023-10-16T00:41:51.137Z,80442.41
2023-10-16T00:43:32.485Z,80445.16
2023-10-16T00:45:13.916Z,80446.47
2023-10-16T00:46:55.416Z,80448.50
2023-10-16T00:48:36.918Z,80450.00
2023-10-16T00:50:18.278Z,80445.34
2023-10-16T00:51:59.667Z,80444.09
2023-10-16T00:53:41.057Z,80442.19
2023-10-16T00:55:22.408Z,80443.44
2023-10-16T00:57:03.745Z,80442.69
2023-10-16T00:58:45.095Z,80434.84
2023-10-16T01:00:26.457Z,80432.16
2023-10-16T01:02:07.860Z,80434.28
2023-10-16T01:03:49.330Z,80426.88
2023-10-16T01:05:30.786Z,80430.25
2023-10-16T01:07:12.211Z,80425.09
2023-10-16T01:08:53.653Z,80427.63
2023-10-16T01:10:35.116Z,80426.72
2023-10-16T01:12:16.556Z,80425.41
2023-10-16T01:13:57.982Z,80419.84
2023-10-16T01:15:39.307Z,80420.25
2023-10-16T01:17:20.698Z,80424.00
2023-10-16T01:19:02.175Z,80417.84
2023-10-16T01:20:43.556Z,80414.53
2023-10-16T01:22:24.942Z,80415.75
2023-10-16T01:24:06.327Z,80414.59
2023-10-16T01:25:47.707Z,80407.59
2023-10-16T01:27:29.310Z,80405.56
2023-10-16T01:29:11.355Z,80409.34
2023-10-16T01:30:53.367Z,80412.03
2023-10-16T01:32:34.860Z,80400.16
2023-10-16T01:34:16.298Z,80402.47
2023-10-16T01:35:57.650Z,80401.72
2023-10-16T01:37:39.012Z,80398.72
2023-10-16T01:39:20.426Z,80410.28
2023-10-16T01:41:01.842Z,80398.19
2023-10-16T01:42:43.363Z,80402.84
2023-10-16T01:44:25.137Z,80397.03
2023-10-16T01:46:06.800Z,80399.44
2023-10-16T01:47:48.283Z,80405.03
2023-10-16T01:49:29.658Z,80397.28
2023-10-16T01:51:11.048Z,80395.31
2023-10-16T01:52:52.451Z,80399.09
2023-10-16T01:54:34.874Z,80392.59
2023-10-16T01:56:16.306Z,80393.72
2023-10-16T01:57:57.790Z,80393.06
2023-10-16T01:59:39.175Z,80395.72
2023-10-16T02:01:20.701Z,80397.28
2023-10-16T02:03:02.204Z,80387.34
2023-10-16T02:04:44.051Z,80381.13
2023-10-16T02:06:25.605Z,80387.78
2023-10-16T02:08:06.981Z,80377.59
2023-10-16T02:09:48.377Z,80371.53
2023-10-16T02:11:29.765Z,80373.78
2023-10-16T02:13:11.151Z,80377.16
2023-10-16T02:14:52.483Z,80373.47
2023-10-16T02:16:33.911Z,80374.00
2023-10-16T02:18:15.325Z,80373.09
2023-10-16T02:19:56.722Z,80359.75
2023-10-16T02:21:38.147Z,80376.41
2023-10-16T02:23:19.550Z,80365.19
2023-10-16T02:25:00.911Z,80365.31
2023-10-16T02:26:42.330Z,80357.00
2023-10-16T02:28:23.687Z,80364.41
2023-10-16T02:30:05.047Z,80357.31
2023-10-16T02:31:46.440Z,80362.28
2023-10-16T02:33:27.871Z,80359.56
2023-10-16T02:35:09.369Z,80363.47
2023-10-16T02:36:50.824Z,80362.94
2023-10-16T02:38:32.209Z,80352.56
2023-10-16T02:40:13.545Z,80359.63
2023-10-16T02:41:54.929Z,80354.66
2023-10-16T02:43:36.317Z,80349.31
2023-10-16T02:45:17.716Z,80353.25
2023-10-16T02:46:59.283Z,80354.53
2023-10-16T02:48:40.673Z,80353.72
2023-10-16T02:50:22.065Z,80351.56
2023-10-16T02:52:03.582Z,80347.97
2023-10-16T02:53:44.999Z,80351.22
2023-10-16T02:55:26.328Z,80347.72
2023-10-16T02:57:07.741Z,80348.63
2023-10-16T02:58:49.143Z,80346.63
2023-10-16T03:00:30.588Z,80347.31
2023-10-16T03:02:12.017Z,80344.41
2023-10-16T03:03:53.435Z,80349.69
2023-10-16T03:05:34.916Z,80351.09
2023-10-16T03:07:16.298Z,80357.72
2023-10-16T03:08:57.641Z,80348.97
2023-10-16T03:10:39.048Z,80344.53
2023-10-16T03:12:20.443Z,80357.97
2023-10-16T03:14:01.786Z,80359.31
2023-10-16T03:15:43.227Z,80353.00
2023-10-16T03:17:24.601Z,80358.41
2023-10-16T03:19:05.992Z,80351.28
2023-10-16T03:20:47.411Z,80359.91
2023-10-16T03:22:28.805Z,80348.91
2023-10-16T03:24:10.186Z,80352.75
2023-10-16T03:25:51.609Z,80358.09
2023-10-16T03:27:33.052Z,80357.88
2023-10-16T03:29:14.449Z,80361.91
2023-10-16T03:30:55.873Z,80355.28
2023-10-16T03:32:37.371Z,80357.66
2023-10-16T03:34:18.800Z,80361.25
2023-10-16T03:36:00.179Z,80356.03
2023-10-16T03:37:41.582Z,80364.00
2023-10-16T03:39:22.967Z,80366.16
2023-10-16T03:41:04.431Z,80368.38
2023-10-16T03:42:45.812Z,80361.41
2023-10-16T03:44:27.398Z,80360.16
2023-10-16T03:46:09.069Z,80358.53
2023-10-16T03:47:50.528Z,80357.31
2023-10-16T03:49:31.908Z,80360.44
2023-10-16T03:51:13.262Z,80360.47
2023-10-16T03:52:54.639Z,80352.75
2023-10-16T03:54:36.079Z,80352.09
2023-10-16T03:56:17.501Z,80352.81
2023-10-16T03:57:58.897Z,80349.09
2023-10-16T03:59:40.306Z,80352.81
2023-10-16T04:01:21.664Z,80368.66
2023-10-16T04:03:03.043Z,80360.38
2023-10-16T04:04:44.536Z,80358.16
2023-10-16T04:06:25.927Z,80359.38
2023-10-16T04:08:07.284Z,80360.16
2023-10-16T04:09:48.722Z,80359.22
2023-10-16T04:11:30.057Z,80355.66
2023-10-16T04:13:11.496Z,80355.97
2023-10-16T04:14:52.882Z,80356.09
2023-10-16T04:16:34.246Z,80366.34
2023-10-16T04:18:15.600Z,80360.69
2023-10-16T04:19:56.959Z,80358.16
2023-10-16T04:21:38.443Z,80365.84
2023-10-16T04:23:19.963Z,80358.84
2023-10-16T04:25:01.353Z,80369.66
2023-10-16T04:26:42.699Z,80358.91
2023-10-16T04:28:24.042Z,80357.44
2023-10-16T04:30:05.482Z,80361.91
2023-10-16T04:31:47.036Z,80359.81
2023-10-16T04:33:28.638Z,80360.97
2023-10-16T04:35:10.018Z,80354.38
2023-10-16T04:36:51.387Z,80361.50
2023-10-16T04:38:33.046Z,80361.19
2023-10-16T04:40:14.476Z,80359.94
2023-10-16T04:41:55.789Z,80356.50
2023-10-16T04:43:37.162Z,80359.19
2023-10-16T04:45:18.525Z,80350.41
2023-10-16T04:46:59.884Z,80350.66
2023-10-16T04:48:41.367Z,80352.31
2023-10-16T04:50:22.794Z,80352.13
2023-10-16T04:52:04.173Z,80354.28
2023-10-16T04:53:45.548Z,80353.31
2023-10-16T04:55:26.902Z,80352.25
2023-10-16T04:57:08.244Z,80341.50
2023-10-16T04:58:49.555Z,80351.28
2023-10-16T05:00:30.930Z,80344.94
2023-10-16T05:02:12.279Z,80349.00
2023-10-16T05:03:53.645Z,80342.84
2023-10-16T05:05:35.166Z,80342.22
2023-10-16T05:07:16.505Z,80343.56
2023-10-16T05:08:57.852Z,80344.19
2023-10-16T05:10:39.202Z,80350.59
2023-10-16T05:12:20.556Z,80341.28
2023-10-16T05:14:01.910Z,80341.56
2023-10-16T05:15:43.295Z,80347.69
2023-10-16T05:17:24.721Z,80345.75
2023-10-16T05:19:06.211Z,80334.06
2023-10-16T05:20:47.601Z,80349.00
2023-10-16T05:22:28.942Z,80332.22
2023-10-16T05:24:10.316Z,80342.22
2023-10-16T05:25:54.358Z,80336.06
2023-10-16T05:27:36.408Z,80340.38
2023-10-16T05:29:17.789Z,80327.28
2023-10-16T05:30:59.151Z,80318.88
2023-10-16T05:32:40.555Z,80323.75
2023-10-16T05:34:21.912Z,80330.13
2023-10-16T05:36:03.360Z,80335.06
2023-10-16T05:37:44.746Z,80327.16
2023-10-16T05:39:26.228Z,80329.47
2023-10-16T05:41:07.586Z,80325.59
2023-10-16T05:42:48.970Z,80328.31
2023-10-16T05:44:30.366Z,80339.69
2023-10-16T05:46:11.821Z,80326.91
2023-10-16T05:47:53.264Z,80330.56
2023-10-16T05:49:34.720Z,80336.25
2023-10-16T05:51:16.041Z,80325.84
2023-10-16T05:52:58.616Z,80334.25
2023-10-16T05:54:41.891Z,80332.44
2023-10-16T05:56:23.253Z,80343.56
2023-10-16T05:58:04.592Z,80345.00
2023-10-16T05:59:45.975Z,80342.28
2023-10-16T06:01:27.383Z,80346.53
2023-10-16T06:03:08.860Z,80347.41
2023-10-16T06:04:50.426Z,80346.72
2023-10-16T06:06:32.040Z,80341.53
2023-10-16T06:08:13.441Z,80354.34
2023-10-16T06:09:54.873Z,80356.72
2023-10-16T06:11:36.273Z,80350.78
2023-10-16T06:13:19.225Z,80354.31
2023-10-16T06:15:00.677Z,80357.25
2023-10-16T06:16:42.243Z,80359.28
2023-10-16T06:18:23.654Z,80367.03
2023-10-16T06:20:05.175Z,80364.09
2023-10-16T06:21:48.019Z,80365.28
2023-10-16T06:23:30.595Z,80366.75
2023-10-16T06:25:12.025Z,80368.69
2023-10-16T06:26:53.422Z,80371.69
2023-10-16T06:28:34.772Z,80372.56
2023-10-16T06:30:16.113Z,80372.19
2023-10-16T06:31:57.457Z,80372.81
2023-10-16T06:33:38.840Z,80376.63
2023-10-16T06:35:20.249Z,80378.09
2023-10-16T06:37:01.612Z,80376.16
2023-10-16T06:38:42.983Z,80371.13
2023-10-16T06:40:24.460Z,80374.16
2023-10-16T06:42:05.878Z,80369.97
2023-10-16T06:43:47.334Z,80368.47
2023-10-16T06:45:28.871Z,80369.94
2023-10-16T06:47:10.285Z,80368.28
2023-10-16T06:48:51.693Z,80369.09
2023-10-16T06:50:33.132Z,80375.84
2023-10-16T06:52:14.461Z,80375.53
2023-10-16T06:53:55.786Z,80380.41
2023-10-16T06:55:37.159Z,80375.06
2023-10-16T06:57:18.592Z,80377.19
2023-10-16T06:58:59.966Z,80378.69
2023-10-16T07:00:41.369Z,80383.19
2023-10-16T07:02:22.734Z,80381.34
2023-10-16T07:04:04.238Z,80375.84
2023-10-16T07:05:45.723Z,80377.81
2023-10-16T07:07:27.150Z,80373.78
2023-10-16T07:09:08.548Z,80376.31
2023-10-16T07:10:50.441Z,80382.59
2023-10-16T07:12:31.877Z,80383.91
2023-10-16T07:14:13.429Z,80386.19
2023-10-16T07:15:54.904Z,80397.63
2023-10-16T07:17:37.694Z,80387.63
2023-10-16T07:19:20.372Z,80382.41
2023-10-16T07:21:01.758Z,80380.44
2023-10-16T07:22:43.115Z,80387.00
2023-10-16T07:24:24.631Z,80387.88
2023-10-16T07:26:06.102Z,80394.53
2023-10-16T07:27:47.512Z,80396.88
2023-10-16T07:29:28.977Z,80395.00
2023-10-16T07:31:10.484Z,80395.59
2023-10-16T07:32:52.052Z,80403.13
2023-10-16T07:34:33.430Z,80399.53
2023-10-16T07:36:14.842Z,80403.03
2023-10-16T07:37:56.245Z,80397.09
2023-10-16T07:39:37.697Z,80405.28
2023-10-16T07:41:19.058Z,80401.44
2023-10-16T07:43:00.462Z,80405.88
2023-10-16T07:44:41.874Z,80412.91
2023-10-16T07:46:23.207Z,80410.81
2023-10-16T07:48:04.664Z,80416.13
2023-10-16T07:49:46.044Z,80416.94
2023-10-16T07:51:27.575Z,80416.47
2023-10-16T07:53:09.013Z,80413.09
2023-10-16T07:54:50.411Z,80414.75
2023-10-16T07:56:31.777Z,80414.44
2023-10-16T07:58:13.149Z,80418.28
2023-10-16T07:59:54.517Z,80421.09
2023-10-16T08:01:35.984Z,80418.00
2023-10-16T08:03:17.480Z,80419.84
2023-10-16T08:04:58.938Z,80416.47
2023-10-16T08:06:40.453Z,80423.38
2023-10-16T08:08:21.877Z,80422.97
2023-10-16T08:10:03.277Z,80421.16
2023-10-16T08:11:44.652Z,80428.31
2023-10-16T08:13:25.997Z,80421.47
2023-10-16T08:15:07.367Z,80423.25
2023-10-16T08:16:48.868Z,80418.56
2023-10-16T08:18:30.369Z,80422.75
2023-10-16T08:20:11.802Z,80418.34
2023-10-16T08:21:53.249Z,80421.88
2023-10-16T08:23:34.710Z,80424.06
2023-10-16T08:25:16.124Z,80425.63
2023-10-16T08:26:57.476Z,80423.97
2023-10-16T08:28:38.787Z,80424.84
2023-10-16T08:30:20.193Z,80425.63
2023-10-16T08:32:01.591Z,80420.84
2023-10-16T08:33:43.021Z,80426.34
2023-10-16T08:35:24.522Z,80418.34
2023-10-16T08:37:05.879Z,80423.72
2023-10-16T08:38:50.089Z,80414.59
2023-10-16T08:40:32.766Z,80408.84
2023-10-16T08:42:14.120Z,80408.91
2023-10-16T08:43:55.515Z,80405.44
2023-10-16T08:45:36.922Z,80411.28
2023-10-16T08:47:18.271Z,80405.94
2023-10-16T08:48:59.679Z,80404.84
2023-10-16T08:50:41.060Z,80408.41
2023-10-16T08:52:22.436Z,80406.69
2023-10-16T08:54:03.808Z,80403.19
2023-10-16T08:55:45.146Z,80401.47
2023-10-16T08:57:26.584Z,80395.31
2023-10-16T08:59:08.042Z,80403.50
2023-10-16T09:00:49.475Z,80402.88
2023-10-16T09:02:30.891Z,80404.25
2023-10-16T09:04:12.316Z,80403.53
2023-10-16T09:05:53.707Z,80400.78
2023-10-16T09:07:35.076Z,80402.16
2023-10-16T09:09:16.439Z,80405.66
2023-10-16T09:10:57.815Z,80409.06
2023-10-16T09:12:39.166Z,80408.41
2023-10-16T09:14:20.724Z,80409.63
2023-10-16T09:16:02.188Z,80409.59
2023-10-16T09:17:43.688Z,80412.25
2023-10-16T09:19:25.609Z,80412.28
2023-10-16T09:21:07.107Z,80418.84
2023-10-16T09:22:48.456Z,80410.22
2023-10-16T09:24:29.877Z,80414.16
2023-10-16T09:26:11.277Z,80417.38
2023-10-16T09:27:52.638Z,80424.56
2023-10-16T09:29:35.667Z,80421.63
2023-10-16T09:31:17.537Z,80419.97
2023-10-16T09:32:59.328Z,80425.94
2023-10-16T09:34:40.992Z,80427.78
2023-10-16T09:36:22.449Z,80425.84
2023-10-16T09:38:03.940Z,80424.72
2023-10-16T09:39:45.329Z,80425.41
2023-10-16T09:41:26.752Z,80422.44
2023-10-16T09:43:08.147Z,80425.66
2023-10-16T09:44:49.689Z,80431.69
2023-10-16T09:46:31.132Z,80429.06
2023-10-16T09:48:12.670Z,80428.91
2023-10-16T09:49:54.108Z,80427.25
2023-10-16T09:51:35.461Z,80426.72
2023-10-16T09:53:16.816Z,80433.72
2023-10-16T09:54:58.284Z,80439.06
2023-10-16T09:56:43.858Z,80431.16
2023-10-16T09:58:26.655Z,80432.69
2023-10-16T10:00:08.167Z,80428.69
2023-10-16T10:01:50.485Z,80430.72
2023-10-16T10:03:33.779Z,80430.88
2023-10-16T10:05:15.518Z,80427.66
2023-10-16T10:06:56.894Z,80432.31
2023-10-16T10:08:38.309Z,80422.34
2023-10-16T10:10:19.699Z,80421.88
2023-10-16T10:12:01.021Z,80418.16
2023-10-16T10:13:42.368Z,80422.19
2023-10-16T10:15:23.725Z,80418.44
2023-10-16T10:17:05.138Z,80421.84
2023-10-16T10:18:46.617Z,80420.16
2023-10-16T10:20:28.026Z,80405.94
2023-10-16T10:22:09.428Z,80408.69
2023-10-16T10:23:50.956Z,80406.09
2023-10-16T10:25:32.425Z,80408.16
2023-10-16T10:27:13.845Z,80403.00
2023-10-16T10:28:55.190Z,80400.41
2023-10-16T10:30:36.636Z,80399.75
2023-10-16T10:32:18.008Z,80399.13
2023-10-16T10:33:59.538Z,80394.50
2023-10-16T10:35:41.107Z,80395.84
2023-10-16T10:37:22.631Z,80391.22
2023-10-16T10:39:04.009Z,80385.28
2023-10-16T10:40:45.337Z,80388.63
2023-10-16T10:42:26.761Z,80382.66
2023-10-16T10:44:08.082Z,80385.91
2023-10-16T10:45:49.487Z,80382.63
2023-10-16T10:47:30.899Z,80381.38
2023-10-16T10:49:12.279Z,80373.47
2023-10-16T10:50:53.674Z,80376.75
2023-10-16T10:52:35.058Z,80366.19
2023-10-16T10:54:16.436Z,80366.88
2023-10-16T10:55:57.824Z,80378.09
2023-10-16T10:57:39.280Z,80357.66
2023-10-16T10:59:20.629Z,80368.19
2023-10-16T11:01:02.191Z,80362.22
2023-10-16T11:02:43.700Z,80362.13
2023-10-16T11:04:25.104Z,80359.38
2023-10-16T11:06:06.502Z,80355.91
2023-10-16T11:07:47.947Z,80349.16
2023-10-16T11:09:29.470Z,80347.09
2023-10-16T11:11:10.792Z,80349.16
2023-10-16T11:12:52.221Z,80354.50
2023-10-16T11:14:33.588Z,80352.50
2023-10-16T11:16:14.961Z,80353.78
2023-10-16T11:17:56.459Z,80340.63
2023-10-16T11:19:37.910Z,80346.47
2023-10-16T11:21:19.233Z,80343.88
2023-10-16T11:23:00.663Z,80342.56
2023-10-16T11:24:42.149Z,80338.59
2023-10-16T11:26:23.596Z,80335.97
2023-10-16T11:28:05.172Z,80337.94
2023-10-16T11:29:46.555Z,80333.72
2023-10-16T11:31:27.983Z,80333.25
2023-10-16T11:33:09.476Z,80321.31
2023-10-16T11:34:50.829Z,80329.19
2023-10-16T11:36:37.546Z,80332.28
2023-10-16T11:38:23.751Z,80321.22
2023-10-16T11:40:05.142Z,80325.63
2023-10-16T11:41:46.591Z,80314.78
2023-10-16T11:43:27.951Z,80316.38
2023-10-16T11:45:09.290Z,80315.72
2023-10-16T11:46:51.421Z,80313.97
2023-10-16T11:48:33.259Z,80314.09
2023-10-16T11:50:14.643Z,80313.56
2023-10-16T11:51:56.014Z,80315.94
2023-10-16T11:53:37.407Z,80311.44
2023-10-16T11:55:19.385Z,80312.84
2023-10-16T11:57:01.032Z,80311.16
2023-10-16T11:58:42.452Z,80312.28
2023-10-16T12:00:23.810Z,80307.63
2023-10-16T12:02:05.165Z,80306.34
2023-10-16T12:03:47.753Z,80309.78
2023-10-16T12:05:30.487Z,80299.88
2023-10-16T12:07:11.955Z,80295.75
2023-10-16T12:08:53.415Z,80291.31
2023-10-16T12:10:35.564Z,80293.19
2023-10-16T12:12:17.256Z,80296.97
2023-10-16T12:13:58.676Z,80287.47
2023-10-16T12:15:40.241Z,80288.59
2023-10-16T12:17:21.726Z,80287.06
2023-10-16T12:19:03.559Z,80287.72
2023-10-16T12:20:45.438Z,80287.97
2023-10-16T12:22:26.800Z,80278.34
2023-10-16T12:24:08.231Z,80289.00
2023-10-16T12:25:49.843Z,80282.53
2023-10-16T12:27:31.382Z,80274.66
2023-10-16T12:29:12.757Z,80284.16
2023-10-16T12:30:54.202Z,80273.75
2023-10-16T12:32:35.693Z,80275.84
2023-10-16T12:34:17.219Z,80282.25
2023-10-16T12:35:58.801Z,80280.94
2023-10-16T12:37:40.174Z,80270.56
2023-10-16T12:39:21.648Z,80271.47
2023-10-16T12:41:03.031Z,80274.56
2023-10-16T12:42:44.614Z,80271.94
2023-10-16T12:44:26.444Z,80275.78
2023-10-16T12:46:08.154Z,80270.16
2023-10-16T12:47:51.082Z,80261.94
2023-10-16T12:49:33.025Z,80268.84
2023-10-16T12:51:14.389Z,80273.00
2023-10-16T12:52:55.749Z,80268.56
2023-10-16T12:54:37.148Z,80272.06
2023-10-16T12:56:18.562Z,80274.03
2023-10-16T12:58:00.013Z,80270.78
2023-10-16T12:59:41.400Z,80275.13
2023-10-16T13:01:22.894Z,80265.72
2023-10-16T13:03:04.359Z,80267.31
2023-10-16T13:04:45.814Z,80268.06
2023-10-16T13:06:27.239Z,80265.38
2023-10-16T13:08:08.689Z,80266.06
2023-10-16T13:09:50.071Z,80264.47
2023-10-16T13:11:31.536Z,80258.69
2023-10-16T13:13:12.922Z,80259.03
2023-10-16T13:14:54.301Z,80259.25
2023-10-16T13:16:35.666Z,80255.78
2023-10-16T13:18:17.005Z,80260.22
2023-10-16T13:19:58.401Z,80250.50
2023-10-16T13:21:39.839Z,80259.50
2023-10-16T13:23:30.603Z,80258.69
2023-10-16T13:25:20.644Z,80254.44
2023-10-16T13:27:02.136Z,80252.25
2023-10-16T13:28:44.078Z,80253.38
2023-10-16T13:30:25.569Z,80252.81
2023-10-16T13:32:07.191Z,80256.34
2023-10-16T13:33:48.579Z,80255.19
2023-10-16T13:35:29.932Z,80255.06
2023-10-16T13:37:11.665Z,80251.00
2023-10-16T13:38:53.444Z,80249.81
2023-10-16T13:40:34.807Z,80250.84
2023-10-16T13:42:16.264Z,80243.50
2023-10-16T13:43:58.948Z,80246.50
2023-10-16T13:45:42.344Z,80252.09
2023-10-16T13:47:24.116Z,80254.63
2023-10-16T13:49:05.529Z,80247.84
2023-10-16T13:50:46.899Z,80247.75
2023-10-16T13:52:28.271Z,80254.97
2023-10-16T13:54:09.624Z,80250.75
2023-10-16T13:55:51.734Z,80252.38
2023-10-16T13:57:33.223Z,80250.16
2023-10-16T13:59:14.586Z,80247.09
2023-10-16T14:00:55.952Z,80246.97
2023-10-16T14:02:37.543Z,80243.25
2023-10-16T14:04:19.069Z,80246.13
2023-10-16T14:06:00.462Z,80241.81
2023-10-16T14:07:42.604Z,80235.75
2023-10-16T14:09:24.275Z,80239.66
2023-10-16T14:11:05.643Z,80242.22
2023-10-16T14:12:47.156Z,80241.50
2023-10-16T14:14:29.238Z,80248.13
2023-10-16T14:16:11.323Z,80233.75
2023-10-16T14:17:52.948Z,80229.97
2023-10-16T14:19:34.377Z,80240.09
2023-10-16T14:21:16.392Z,80237.06
2023-10-16T14:22:58.005Z,80240.16
2023-10-16T14:24:39.369Z,80241.22
2023-10-16T14:26:20.727Z,80243.31
2023-10-16T14:28:02.158Z,80251.56
2023-10-16T14:29:43.496Z,80247.09
2023-10-16T14:31:24.972Z,80249.34
2023-10-16T14:33:06.414Z,80252.22
2023-10-16T14:34:47.785Z,80259.50
2023-10-16T14:36:29.778Z,80259.69
2023-10-16T14:38:11.415Z,80256.56
2023-10-16T14:39:52.807Z,80257.25
2023-10-16T14:41:34.321Z,80261.19
2023-10-16T14:43:15.752Z,80259.13
2023-10-16T14:44:57.268Z,80260.44
2023-10-16T14:46:38.852Z,80259.69
2023-10-16T14:48:20.236Z,80260.31
2023-10-16T14:50:01.716Z,80260.84
2023-10-16T14:51:43.295Z,80262.78
2023-10-16T14:53:24.846Z,80261.31
2023-10-16T14:55:06.526Z,80264.47
2023-10-16T14:56:47.984Z,80269.44
2023-10-16T14:59:04.946Z,80270.25
2023-10-16T15:00:31.096Z,80275.03
2023-10-16T15:02:12.796Z,80264.88
2023-10-16T15:03:57.287Z,80273.50
2023-10-16T15:05:38.755Z,80269.72
2023-10-16T15:07:20.248Z,80266.50
2023-10-16T15:09:01.666Z,80273.75
2023-10-16T15:10:49.076Z,80265.88
2023-10-16T15:12:31.893Z,80264.53
2023-10-16T15:14:13.359Z,80265.19
2023-10-16T15:15:54.754Z,80261.78
2023-10-16T15:17:36.202Z,80267.09
2023-10-16T15:19:17.663Z,80261.88
2023-10-16T15:20:59.179Z,80272.97
2023-10-16T15:22:40.549Z,80272.31
2023-10-16T15:24:21.925Z,80265.94
2023-10-16T15:26:03.312Z,80278.38
2023-10-16T15:27:44.723Z,80268.25
2023-10-16T15:29:26.108Z,80267.56
2023-10-16T15:31:07.554Z,80263.81
2023-10-16T15:32:49.314Z,80264.47
2023-10-16T15:34:31.029Z,80263.25
2023-10-16T15:36:12.656Z,80264.78
2023-10-16T15:37:54.042Z,80260.81
2023-10-16T15:39:35.386Z,80270.03
2023-10-16T15:41:16.829Z,80267.53
2023-10-16T15:42:58.365Z,80272.03
2023-10-16T15:44:39.772Z,80261.75
2023-10-16T15:46:21.322Z,80265.16
2023-10-16T15:48:02.794Z,80270.50
2023-10-16T15:49:44.278Z,80271.03
2023-10-16T15:51:25.750Z,80265.81
2023-10-16T15:53:07.293Z,80270.94
2023-10-16T15:54:48.710Z,80262.47
2023-10-16T15:56:30.129Z,80259.88
2023-10-16T15:58:11.552Z,80263.06
2023-10-16T15:59:52.988Z,80268.34
2023-10-16T16:01:34.382Z,80270.00
2023-10-16T16:03:15.782Z,80269.91
2023-10-16T16:04:57.443Z,80275.81
2023-10-16T16:06:38.932Z,80268.81
2023-10-16T16:08:20.348Z,80281.00
2023-10-16T16:10:01.810Z,80272.94
2023-10-16T16:11:43.230Z,80276.53
2023-10-16T16:13:24.692Z,80272.69
2023-10-16T16:15:06.037Z,80279.03
2023-10-16T16:16:47.424Z,80275.22
2023-10-16T16:18:28.846Z,80278.44
2023-10-16T16:20:10.229Z,80279.03
2023-10-16T16:21:52.338Z,80282.59
2023-10-16T16:23:33.822Z,80294.22
2023-10-16T16:25:15.231Z,80292.19
2023-10-16T16:26:56.640Z,80298.81
2023-10-16T16:28:37.998Z,80303.00
2023-10-16T16:30:19.420Z,80302.69
2023-10-16T16:32:01.189Z,80301.53
2023-10-16T16:33:42.610Z,80303.94
2023-10-16T16:35:24.017Z,80302.28
2023-10-16T16:37:05.498Z,80302.78
2023-10-16T16:38:46.983Z,80305.25
2023-10-16T16:40:28.448Z,80299.94
2023-10-16T16:42:09.832Z,80303.78
2023-10-16T16:43:51.250Z,80311.50
2023-10-16T16:45:32.617Z,80307.78
2023-10-16T16:47:13.990Z,80308.72
2023-10-16T16:48:55.350Z,80306.53
2023-10-16T16:50:36.715Z,80320.78
2023-10-16T16:52:18.251Z,80317.06
2023-10-16T16:53:59.613Z,80308.31
2023-10-16T16:55:40.991Z,80317.91
2023-10-16T16:57:22.342Z,80321.47
2023-10-16T16:59:03.674Z,80313.78
2023-10-16T17:00:45.030Z,80307.00
2023-10-16T17:02:26.443Z,80315.03
2023-10-16T17:04:07.952Z,80320.94
2023-10-16T17:05:49.529Z,80322.06
2023-10-16T17:07:31.285Z,80318.59
2023-10-16T17:09:12.962Z,80322.44
2023-10-16T17:10:54.743Z,80322.03
2023-10-16T17:12:36.376Z,80323.41
2023-10-16T17:14:18.635Z,80323.78
2023-10-16T17:16:01.082Z,80316.75
2023-10-16T17:17:42.575Z,80321.69
2023-10-16T17:19:24.368Z,80325.50
2023-10-16T17:21:05.725Z,80326.47
2023-10-16T17:23:04.405Z,80318.28
2023-10-16T17:24:46.365Z,80324.41
2023-10-16T17:26:27.701Z,80327.09
2023-10-16T17:28:09.172Z,80332.31
2023-10-16T17:29:50.737Z,80331.41
2023-10-16T17:31:32.089Z,80330.56
2023-10-16T17:33:13.526Z,80331.50
2023-10-16T17:34:55.340Z,80330.88
2023-10-16T17:36:36.820Z,80339.38
2023-10-16T17:38:18.315Z,80329.06
2023-10-16T17:39:59.704Z,80330.53
2023-10-16T17:41:41.092Z,80332.50
2023-10-16T17:43:22.840Z,80339.16
2023-10-16T17:45:04.442Z,80337.22
2023-10-16T17:46:45.937Z,80333.25
2023-10-16T17:48:27.566Z,80340.03
2023-10-16T17:50:09.019Z,80330.34
2023-10-16T17:51:50.397Z,80334.72
2023-10-16T17:53:31.957Z,80334.72
2023-10-16T17:55:13.759Z,80341.59
2023-10-16T17:56:55.274Z,80342.91
2023-10-16T17:58:36.985Z,80334.47
2023-10-16T18:00:18.630Z,80350.47
2023-10-16T18:02:00.213Z,80342.09
2023-10-16T18:03:41.953Z,80344.19
2023-10-16T18:05:23.487Z,80339.56
2023-10-16T18:07:04.858Z,80351.66
2023-10-16T18:08:46.450Z,80340.88
2023-10-16T18:10:28.104Z,80339.00
2023-10-16T18:12:09.597Z,80338.78
2023-10-16T18:13:50.959Z,80344.97
2023-10-16T18:15:32.488Z,80338.84
2023-10-16T18:17:14.061Z,80346.97
2023-10-16T18:18:55.396Z,80338.41
2023-10-16T18:20:37.068Z,80337.63
2023-10-16T18:22:18.872Z,80349.72
2023-10-16T18:24:00.537Z,80348.38
2023-10-16T18:25:41.915Z,80338.44
2023-10-16T18:27:23.447Z,80335.81
2023-10-16T18:29:05.182Z,80342.97
2023-10-16T18:30:46.670Z,80337.75
2023-10-16T18:32:28.104Z,80330.34
2023-10-16T18:34:09.486Z,80331.09
2023-10-16T18:35:51.095Z,80330.28
2023-10-16T18:37:32.455Z,80337.34
2023-10-16T18:39:13.819Z,80335.41
2023-10-16T18:40:55.875Z,80337.94
2023-10-16T18:42:37.620Z,80341.88
2023-10-16T18:44:19.085Z,80347.84
2023-10-16T18:46:00.516Z,80335.66
2023-10-16T18:47:41.973Z,80340.94
2023-10-16T18:49:23.338Z,80339.94
2023-10-16T18:51:04.706Z,80342.38
2023-10-16T18:52:46.094Z,80343.09
2023-10-16T18:54:28.401Z,80343.84
2023-10-16T18:56:10.388Z,80328.94
2023-10-16T18:57:51.848Z,80328.81
2023-10-16T18:59:33.185Z,80329.56
2023-10-16T19:01:14.789Z,80333.06
2023-10-16T19:02:56.468Z,80325.69
2023-10-16T19:04:37.900Z,80327.88
2023-10-16T19:06:19.321Z,80329.22
2023-10-16T19:08:00.814Z,80324.06
2023-10-16T19:09:42.214Z,80327.78
2023-10-16T19:11:23.564Z,80324.44
2023-10-16T19:13:04.962Z,80325.72
2023-10-16T19:14:46.335Z,80331.19
2023-10-16T19:16:27.708Z,80327.66
2023-10-16T19:18:09.186Z,80328.31
2023-10-16T19:19:50.635Z,80321.31
2023-10-16T19:21:32.575Z,80327.09
2023-10-16T19:23:14.221Z,80329.59
2023-10-16T19:24:55.714Z,80333.94
2023-10-16T19:26:37.304Z,80335.22
2023-10-16T19:28:18.718Z,80326.88
2023-10-16T19:30:00.209Z,80330.31
2023-10-16T19:31:41.694Z,80324.53
2023-10-16T19:33:23.932Z,80329.25
2023-10-16T19:35:05.528Z,80333.34
2023-10-16T19:36:47.212Z,80345.59
2023-10-16T19:38:28.717Z,80339.50
2023-10-16T19:40:10.064Z,80341.97
2023-10-16T19:41:51.452Z,80346.72
2023-10-16T19:43:32.828Z,80344.94
2023-10-16T19:45:14.452Z,80347.06
2023-10-16T19:46:56.031Z,80348.94
2023-10-16T19:48:38.039Z,80349.41
2023-10-16T19:50:19.651Z,80353.19
2023-10-16T19:52:01.219Z,80351.34
2023-10-16T19:53:42.677Z,80347.97